< Typhoon 202203 2022 Season Typhoon 202205 >
Typhoon 202204 (AERE)
General InformationTrack Information on Google MapsDetailed Wind InformationForecast History on Google MapsAccess Analytics MapList of All Images || NewsDisaster Info.WeblogTrackbackTyphoon FrontTwiphoonTyphoon Now!Typhoon ImaginationJMA Disaster Info. XMLResourceGoogle EarthGE AnimationAtom FeedGeoJSON
Detalied Best Track (Time Zone = UTC)
Year Month Day Hour Lat. Long. Pressure (hPa) Wind (kt) Class Image Chart
2022 6 30 18 19.9 130.9 1002 30 2 Image Chart
2022 6 30 21 20.0 130.8 1002 30 2 Image Chart
2022 7 1 00 20.1 130.9 1002 35 3 Image Chart
2022 7 1 03 20.5 131.3 1002 35 3 Image Chart
2022 7 1 06 20.9 131.2 1000 35 3 Image Chart
2022 7 1 09 21.5 131.5 1000 35 3 Image Chart
2022 7 1 12 22.2 131.8 998 40 3 Image Chart
2022 7 1 15 22.9 131.5 998 40 3 Image Chart
2022 7 1 18 23.4 131.3 998 40 3 Image Chart
2022 7 1 21 24.0 130.9 998 40 3 Image Chart
2022 7 2 00 24.6 130.4 998 40 3 Image Chart
2022 7 2 03 25.2 130.1 996 45 3 Image Chart
2022 7 2 06 25.8 129.6 996 45 3 Image Chart
2022 7 2 09 26.4 128.8 994 45 3 Image Chart
2022 7 2 12 26.3 128.1 994 45 3 Image Chart
2022 7 2 15 26.7 127.7 996 40 3 Image Chart
2022 7 2 18 27.1 127.4 996 40 3 Image Chart
2022 7 2 21 27.6 127.2 996 40 3 Image Chart
2022 7 3 00 27.8 127.2 996 35 3 Image Chart
2022 7 3 03 27.9 127.1 996 35 3 Image Chart
2022 7 3 06 28.1 126.9 996 35 3 Image Chart
2022 7 3 09 28.5 126.7 996 35 3 Image Chart
2022 7 3 12 28.5 126.4 996 35 3 Image Chart
2022 7 3 15 28.8 126.6 996 35 3 Image Chart
2022 7 3 18 29.2 126.8 996 35 3 Image Chart
2022 7 3 21 29.6 127.0 996 35 3 Image Chart
2022 7 4 00 29.8 127.1 996 35 3 Image Chart
2022 7 4 03 30.5 127.6 996 35 3 Image Chart
2022 7 4 06 30.8 127.8 996 35 3 Image Chart
2022 7 4 09 31.2 128.2 996 35 3 Image Chart
2022 7 4 12 31.4 128.8 996 35 3 Image Chart
2022 7 4 15 31.9 129.0 996 35 3 Image Chart
2022 7 4 18 32.6 129.4 998 35 3 Image Chart
2022 7 4 21 33.1 129.9 1000 35 3 Image Chart
2022 7 5 00 33.0 131.0 1002 0 6 Image Chart
Japan Meteorological Agency Best Track Data | Correction Date : 2022-07-05
< Typhoon 202203 2022 Season Typhoon 202205 >

Help